Port Alfred, South Africa
Current Conditions -  °F | °C
As of 2:00 PM on Friday 19 Dec 2014 (Local Time) from FAEL Reporting Station
Overcast Overcast  
Wind Chill: 72°   Ceiling: 3100
Heat Index: 72°   Visibility: 6mi
Dew Point: 64°   Wind: 8mph
Humidity: 78%   Direction: 140°SE
Pressure: 29.88"   Gusts: NA
Location:  33.6°S, 26.88°E
Report Text: FAEL 191200Z 14007KT 9999 SCT015 BKN031 OVC050 22/18 Q1012
Loading
Personal Weather Stations






























Interactive Weather Map New forecast layout! Learn more

10-Day Weather Forecast

Advertisements
Track Severe Weather on mobile